This is the latest recevied weather packets stored in our database for station/object K8RLH. If no packets are shown the sender has not sent any weather packets the latest 1 day(s).
| Time | Temp. | Humidity | Pressure | Rain* | Wind** | Luminosity | Snow |
|---|---|---|---|---|---|---|---|
| 1778106945 | 26.11° C | 61% | 1013.4 hPa | 0 mm | - | 23 W/m² | - |
| 1778106642 | 26.11° C | 61% | 1013.5 hPa | 0 mm | - | 35 W/m² | - |
| 1778106035 | 26.11° C | 61% | 1013.4 hPa | 0 mm | - | 52 W/m² | - |
| 1778105126 | 26.67° C | 59% | 1013.1 hPa | 0 mm | - | 65 W/m² | - |
| 1778103912 | 26.67° C | 58% | 1013.7 hPa | 0 mm | - | 78 W/m² | - |
| 1778103609 | 26.67° C | 58% | 1013.5 hPa | 0 mm | - | 93 W/m² | - |
| 1778102700 | 26.67° C | 62% | 1014 hPa | 0 mm | - | 151 W/m² | - |
| 1778102395 | 26.11° C | 61% | 1014.2 hPa | 0 mm | - | 127 W/m² | - |
| 1778101182 | 26.11° C | 59% | 1014.7 hPa | 0 mm | - | 123 W/m² | - |
| 1778100878 | 26.67° C | 58% | 1014.6 hPa | 0 mm | - | 124 W/m² | - |
| 1778099666 | 26.67° C | 60% | 1015 hPa | 0 mm | - | 127 W/m² | - |
| 1778098151 | 26.11° C | 61% | 1015 hPa | 0 mm | - | 148 W/m² | - |
| 1778097847 | 26.11° C | 60% | 1015.2 hPa | 0 mm | - | 169 W/m² | - |
| 1778097241 | 26.11° C | 59% | 1015.5 hPa | 0 mm | - | 175 W/m² | - |
| 1778096634 | 26.11° C | 59% | 1015.3 hPa | 0 mm | - | 241 W/m² | - |
| 1778094815 | 25.56° C | 61% | 1015.9 hPa | 0 mm | - | 198 W/m² | - |
| 1778094208 | 25.56° C | 61% | 1016 hPa | 0 mm | - | 230 W/m² | - |
| 1778091481 | 25° C | 62% | 1015.8 hPa | 0 mm | - | 143 W/m² | - |
| 1778088147 | 23.89° C | 66% | 1017 hPa | 0 mm | - | 247 W/m² | - |
| 1778087542 | 23.33° C | 68% | 1016.9 hPa | 0 mm | - | 232 W/m² | - |
| 1778086331 | 22.22° C | 71% | 1016.4 hPa | 0 mm | - | 258 W/m² | - |
| 1778082694 | 21.11° C | 72% | 1017.4 hPa | 0 mm | - | 189 W/m² | - |
| 1778081556 | 21.11° C | 71% | 1017.6 hPa | 0 mm | - | 153 W/m² | - |
| 1778081253 | 21.11° C | 72% | 1017.4 hPa | 0 mm | - | 136 W/m² | - |
| 1778080042 | 20.56° C | 73% | 1017.5 hPa | 0 mm | - | 162 W/m² | - |
* Rain latest hour (hover to see other rain measurements)
** Current wind speed in m/s (hover to see current wind gust speed)